Time;durP1;ratioP1;P1;durP2;ratioP2;P2;SDS_P1;SDS_P2;PMS_P1;PMS_P2;Temp;Humidity;BMP_temperature;BMP_pressure;BME280_temperature;BME280_humidity;BME280_pressure;Samples;Min_cycle;Max_cycle;Signal;HPM_P1;HPM_P2
2022/03/26 00:00:22;;;;;;;24.77;12.38;;;;;;;;;;5089379;28;20024;-70
2022/03/26 00:02:49;;;;;;;29.30;12.68;;;;;;;;;;5089557;28;20028;-71
2022/03/26 00:05:18;;;;;;;22.95;12.32;;;;;;;;;;5089198;28;20019;-71
2022/03/26 00:07:47;;;;;;;33.72;12.73;;;;;;;;;;5089219;28;20031;-70
2022/03/26 00:10:13;;;;;;;26.80;12.80;;;;;;;;;;5089020;28;20028;-71
2022/03/26 00:12:40;;;;;;;32.45;12.55;;;;;;;;;;5089235;28;20028;-71
2022/03/26 00:15:06;;;;;;;33.55;13.00;;;;;;;;;;5088877;28;20032;-71
2022/03/26 00:17:32;;;;;;;30.67;11.57;;;;;;;;;;5088973;28;20032;-71
2022/03/26 00:19:58;;;;;;;26.48;12.20;;;;;;;;;;5088798;28;20028;-71
2022/03/26 00:22:24;;;;;;;24.60;12.23;;;;;;;;;;5087906;28;20536;-70
2022/03/26 00:24:50;;;;;;;28.98;12.55;;;;;;;;;;5088960;28;20044;-70
2022/03/26 00:27:17;;;;;;;30.98;13.57;;;;;;;;;;5095680;28;20391;-71
2022/03/26 00:29:44;;;;;;;30.45;12.77;;;;;;;;;;5109004;28;20019;-70
2022/03/26 00:32:10;;;;;;;26.80;13.15;;;;;;;;;;5109061;28;20024;-71
2022/03/26 00:34:36;;;;;;;29.50;12.63;;;;;;;;;;5109070;28;20027;-70
2022/03/26 00:37:02;;;;;;;27.45;13.32;;;;;;;;;;5107720;28;20028;-71
2022/03/26 00:39:28;;;;;;;32.42;13.10;;;;;;;;;;5090800;28;20399;-70
2022/03/26 00:41:54;;;;;;;31.70;12.63;;;;;;;;;;5088543;28;20380;-71
2022/03/26 00:44:23;;;;;;;30.23;13.57;;;;;;;;;;5090033;28;20062;-70
2022/03/26 00:46:51;;;;;;;32.88;13.40;;;;;;;;;;5088497;28;20024;-70
2022/03/26 00:49:19;;;;;;;37.65;14.07;;;;;;;;;;5088531;28;20020;-70
2022/03/26 00:51:45;;;;;;;28.02;12.15;;;;;;;;;;5088629;28;20396;-70
2022/03/26 00:54:12;;;;;;;42.30;13.93;;;;;;;;;;5088767;28;20036;-70
2022/03/26 00:56:39;;;;;;;26.33;12.95;;;;;;;;;;5088439;28;20028;-70
2022/03/26 00:59:06;;;;;;;31.98;13.32;;;;;;;;;;5088305;28;20020;-69
2022/03/26 01:01:33;;;;;;;33.75;12.95;;;;;;;;;;5088307;28;20457;-70
2022/03/26 01:04:00;;;;;;;30.00;13.05;;;;;;;;;;5088465;28;20046;-70
2022/03/26 01:06:26;;;;;;;29.63;14.15;;;;;;;;;;5088490;28;20642;-70
2022/03/26 01:08:53;;;;;;;33.38;12.77;;;;;;;;;;5088455;28;20032;-70
2022/03/26 01:11:19;;;;;;;34.33;13.10;;;;;;;;;;5091936;28;20028;-70
2022/03/26 01:13:45;;;;;;;30.90;12.93;;;;;;;;;;5092312;28;20028;-70
2022/03/26 01:16:12;;;;;;;27.23;13.10;;;;;;;;;;5092070;28;20043;-71
2022/03/26 01:18:39;;;;;;;29.38;12.98;;;;;;;;;;5092072;28;20098;-71
2022/03/26 01:21:06;;;;;;;27.42;11.55;;;;;;;;;;5091904;28;20024;-70
2022/03/26 01:23:32;;;;;;;32.72;12.80;;;;;;;;;;5092037;28;20051;-71
2022/03/26 01:25:58;;;;;;;27.80;12.50;;;;;;;;;;5091905;28;20047;-70
2022/03/26 01:28:25;;;;;;;31.83;13.55;;;;;;;;;;5091780;28;20020;-70
2022/03/26 01:30:52;;;;;;;25.58;12.07;;;;;;;;;;5091760;28;20032;-70
2022/03/26 01:33:18;;;;;;;35.30;12.93;;;;;;;;;;5094310;28;20686;-71
2022/03/26 01:35:44;;;;;;;30.10;14.57;;;;;;;;;;5103241;28;20032;-71
2022/03/26 01:38:11;;;;;;;36.30;12.30;;;;;;;;;;5091732;28;20024;-71
2022/03/26 01:40:37;;;;;;;31.05;14.02;;;;;;;;;;5091648;28;20032;-71
2022/03/26 01:43:04;;;;;;;31.60;12.90;;;;;;;;;;5091827;28;20047;-70
2022/03/26 01:45:30;;;;;;;33.08;13.07;;;;;;;;;;5091658;28;20028;-70
2022/03/26 01:47:58;;;;;;;28.30;13.07;;;;;;;;;;5091496;28;20098;-70
2022/03/26 01:50:25;;;;;;;33.08;12.85;;;;;;;;;;5091646;28;20024;-71
2022/03/26 01:52:51;;;;;;;33.20;12.32;;;;;;;;;;5091508;28;20629;-70
2022/03/26 01:55:22;;;;;;;26.98;12.63;;;;;;;;;;5091587;28;20036;-70
2022/03/26 01:57:48;;;;;;;25.17;12.33;;;;;;;;;;5091345;28;20028;-70
2022/03/26 02:00:14;;;;;;;26.48;11.93;;;;;;;;;;5089667;28;20040;-70
2022/03/26 02:02:43;;;;;;;31.33;11.68;;;;;;;;;;5091497;28;20027;-70
2022/03/26 02:05:14;;;;;;;27.08;12.00;;;;;;;;;;5091657;28;20499;-71
2022/03/26 02:07:42;;;;;;;28.30;11.70;;;;;;;;;;5091445;28;20031;-70
2022/03/26 02:10:10;;;;;;;27.73;12.32;;;;;;;;;;5091401;28;20024;-70
2022/03/26 02:12:36;;;;;;;26.13;12.23;;;;;;;;;;5091360;28;20028;-70
2022/03/26 02:15:04;;;;;;;24.90;11.55;;;;;;;;;;5091306;28;20496;-69
2022/03/26 02:17:30;;;;;;;26.13;12.40;;;;;;;;;;5091176;28;20024;-69
2022/03/26 02:19:58;;;;;;;28.55;12.13;;;;;;;;;;5091186;28;20020;-71
2022/03/26 02:22:25;;;;;;;26.00;12.27;;;;;;;;;;5090288;28;20023;-70
2022/03/26 02:24:52;;;;;;;24.45;11.35;;;;;;;;;;5091118;28;20495;-72
2022/03/26 02:27:18;;;;;;;28.58;11.77;;;;;;;;;;5091036;28;20039;-70
2022/03/26 02:29:44;;;;;;;25.25;11.48;;;;;;;;;;5091146;28;20031;-71
2022/03/26 02:32:10;;;;;;;28.08;11.25;;;;;;;;;;5091044;28;20051;-69
2022/03/26 02:34:37;;;;;;;29.45;11.93;;;;;;;;;;5110908;28;20024;-70
2022/03/26 02:37:04;;;;;;;25.95;12.05;;;;;;;;;;5106459;28;20028;-69
2022/03/26 02:39:30;;;;;;;24.55;11.35;;;;;;;;;;5090745;28;20385;-69
2022/03/26 02:41:56;;;;;;;31.73;13.15;;;;;;;;;;5090595;28;20028;-70
2022/03/26 02:44:24;;;;;;;25.75;12.07;;;;;;;;;;5090759;28;20030;-69
2022/03/26 02:46:50;;;;;;;25.20;11.88;;;;;;;;;;5093020;28;20036;-69
2022/03/26 02:49:16;;;;;;;24.92;11.52;;;;;;;;;;5090563;28;20028;-70
2022/03/26 02:51:45;;;;;;;26.83;11.98;;;;;;;;;;5090517;28;20058;-69
2022/03/26 02:54:18;;;;;;;23.77;12.27;;;;;;;;;;5090496;28;20138;-70
2022/03/26 02:56:48;;;;;;;24.75;11.45;;;;;;;;;;5088369;28;20036;-71
2022/03/26 02:59:16;;;;;;;30.17;12.03;;;;;;;;;;5090609;28;20046;-70
2022/03/26 03:01:42;;;;;;;25.15;11.95;;;;;;;;;;5090273;28;21044;-71
2022/03/26 03:04:08;;;;;;;24.42;11.75;;;;;;;;;;5088841;28;20425;-70
2022/03/26 03:06:34;;;;;;;29.05;11.35;;;;;;;;;;5089956;28;20027;-70
2022/03/26 03:09:02;;;;;;;30.35;12.93;;;;;;;;;;5089722;28;20028;-70
2022/03/26 03:11:29;;;;;;;23.75;11.55;;;;;;;;;;5089968;28;20031;-70
2022/03/26 03:13:55;;;;;;;27.58;12.23;;;;;;;;;;5089826;28;20468;-70
2022/03/26 03:16:21;;;;;;;37.47;12.90;;;;;;;;;;5089798;28;20039;-70
2022/03/26 03:18:47;;;;;;;32.40;13.02;;;;;;;;;;5088597;28;20043;-69
2022/03/26 03:21:13;;;;;;;30.40;12.52;;;;;;;;;;5088933;28;20126;-71
2022/03/26 03:23:39;;;;;;;35.50;12.65;;;;;;;;;;5089784;28;20048;-70
2022/03/26 03:26:05;;;;;;;28.02;12.57;;;;;;;;;;5089694;28;20063;-70
2022/03/26 03:28:33;;;;;;;27.88;12.85;;;;;;;;;;5089544;28;20052;-71
2022/03/26 03:31:00;;;;;;;29.70;13.23;;;;;;;;;;5088473;28;20036;-70
2022/03/26 03:33:26;;;;;;;28.77;13.30;;;;;;;;;;5089313;28;20024;-70
2022/03/26 03:35:53;;;;;;;26.83;12.48;;;;;;;;;;5089362;28;20023;-70
2022/03/26 03:38:19;;;;;;;31.17;12.60;;;;;;;;;;5089308;28;20039;-70
2022/03/26 03:40:45;;;;;;;28.05;11.95;;;;;;;;;;5089105;28;20039;-69
2022/03/26 03:43:11;;;;;;;29.42;13.80;;;;;;;;;;5089412;28;20036;-70
2022/03/26 03:45:37;;;;;;;32.65;12.93;;;;;;;;;;5089315;28;20358;-69
2022/03/26 03:48:03;;;;;;;31.77;13.82;;;;;;;;;;5089135;28;20039;-70
2022/03/26 03:50:29;;;;;;;30.83;13.55;;;;;;;;;;5087977;28;20039;-69
2022/03/26 03:52:55;;;;;;;32.22;15.27;;;;;;;;;;5089120;28;20024;-70
2022/03/26 03:55:21;;;;;;;29.45;13.20;;;;;;;;;;5089081;28;20056;-70
2022/03/26 03:57:52;;;;;;;29.33;13.25;;;;;;;;;;5088993;28;20062;-70
2022/03/26 04:00:17;;;;;;;32.67;12.95;;;;;;;;;;5089082;28;20032;-69
2022/03/26 04:02:43;;;;;;;32.90;14.07;;;;;;;;;;5088954;28;20451;-69
2022/03/26 04:05:10;;;;;;;32.10;13.25;;;;;;;;;;5088926;28;20051;-69
2022/03/26 04:07:42;;;;;;;27.85;12.95;;;;;;;;;;5088904;28;20032;-70
2022/03/26 04:10:09;;;;;;;29.17;12.45;;;;;;;;;;5087804;28;20039;-70
2022/03/26 04:12:38;;;;;;;31.67;12.82;;;;;;;;;;5088899;28;20475;-70
2022/03/26 04:15:06;;;;;;;31.92;14.10;;;;;;;;;;5088921;28;20042;-71
2022/03/26 04:17:32;;;;;;;27.85;12.88;;;;;;;;;;5086948;28;20051;-71
2022/03/26 04:20:00;;;;;;;27.65;13.23;;;;;;;;;;5088823;28;20036;-70
2022/03/26 04:22:25;;;;;;;28.02;13.82;;;;;;;;;;5107902;28;20054;-70
2022/03/26 04:24:51;;;;;;;32.92;14.20;;;;;;;;;;5109119;28;20483;-70
2022/03/26 04:27:17;;;;;;;30.65;13.73;;;;;;;;;;5109202;28;20070;-70
2022/03/26 04:29:43;;;;;;;32.22;14.40;;;;;;;;;;5110064;28;20118;-71
2022/03/26 04:32:10;;;;;;;27.83;13.73;;;;;;;;;;5111086;28;20522;-70
2022/03/26 04:34:37;;;;;;;30.92;14.02;;;;;;;;;;5111593;28;20032;-72
2022/03/26 04:37:05;;;;;;;29.17;14.40;;;;;;;;;;5117910;28;21272;-70
2022/03/26 04:39:31;;;;;;;29.45;14.20;;;;;;;;;;5116708;28;20019;-70
2022/03/26 04:41:57;;;;;;;32.70;15.38;;;;;;;;;;5111402;28;20039;-70
2022/03/26 04:44:22;;;;;;;29.23;14.10;;;;;;;;;;5110142;28;20058;-71
2022/03/26 04:46:48;;;;;;;33.58;14.15;;;;;;;;;;5109628;28;20062;-71
2022/03/26 04:49:14;;;;;;;28.73;14.20;;;;;;;;;;5111861;28;20480;-70
2022/03/26 04:51:40;;;;;;;37.83;15.13;;;;;;;;;;5113246;28;20024;-71
2022/03/26 04:54:06;;;;;;;30.92;13.55;;;;;;;;;;5113282;28;20024;-71
2022/03/26 04:56:32;;;;;;;30.33;14.27;;;;;;;;;;5113216;28;20047;-71
2022/03/26 04:58:58;;;;;;;30.67;15.05;;;;;;;;;;5113014;28;20031;-71
2022/03/26 05:01:24;;;;;;;35.05;14.38;;;;;;;;;;5113265;28;20490;-71
2022/03/26 05:03:50;;;;;;;30.17;15.13;;;;;;;;;;5113061;28;20027;-71
2022/03/26 05:06:16;;;;;;;36.88;14.55;;;;;;;;;;5113205;28;20377;-72
2022/03/26 05:08:42;;;;;;;32.10;13.60;;;;;;;;;;5112863;28;20062;-71
2022/03/26 05:11:08;;;;;;;34.65;15.18;;;;;;;;;;5113012;28;20047;-71
2022/03/26 05:13:33;;;;;;;38.38;16.52;;;;;;;;;;5112913;28;20384;-72
2022/03/26 05:15:59;;;;;;;31.92;15.07;;;;;;;;;;5112816;28;20051;-71
2022/03/26 05:18:26;;;;;;;30.75;14.70;;;;;;;;;;5112679;28;20055;-71
2022/03/26 05:20:55;;;;;;;30.40;14.68;;;;;;;;;;5112677;28;20038;-72
2022/03/26 05:23:21;;;;;;;34.30;13.73;;;;;;;;;;5112675;28;20047;-71
2022/03/26 05:25:47;;;;;;;45.35;15.40;;;;;;;;;;5112564;28;20027;-72
2022/03/26 05:28:13;;;;;;;40.55;15.23;;;;;;;;;;5112490;28;20082;-71
2022/03/26 05:30:40;;;;;;;34.58;15.50;;;;;;;;;;5110555;28;20059;-71
2022/03/26 05:33:06;;;;;;;34.97;15.25;;;;;;;;;;5112522;28;20027;-71
2022/03/26 05:35:31;;;;;;;33.05;15.20;;;;;;;;;;5112317;28;20028;-71
2022/03/26 05:37:57;;;;;;;31.75;13.85;;;;;;;;;;5112201;28;20110;-71
2022/03/26 05:40:23;;;;;;;36.67;15.23;;;;;;;;;;5112051;28;20059;-71
2022/03/26 05:42:50;;;;;;;35.75;15.73;;;;;;;;;;5110327;28;20064;-71
2022/03/26 05:45:17;;;;;;;35.15;14.77;;;;;;;;;;5112061;28;20030;-70
2022/03/26 05:47:43;;;;;;;34.63;14.35;;;;;;;;;;5111989;28;20023;-70
2022/03/26 05:50:11;;;;;;;35.72;15.68;;;;;;;;;;5111902;28;20589;-70
2022/03/26 05:52:38;;;;;;;36.90;15.52;;;;;;;;;;5112003;28;20035;-70
2022/03/26 05:55:04;;;;;;;34.50;15.55;;;;;;;;;;5111733;28;20032;-71
2022/03/26 05:57:30;;;;;;;38.72;16.13;;;;;;;;;;5110359;28;20039;-71
2022/03/26 05:59:56;;;;;;;36.85;15.75;;;;;;;;;;5111711;28;20023;-71
2022/03/26 06:02:22;;;;;;;35.33;15.40;;;;;;;;;;5111776;28;20066;-71
2022/03/26 06:04:48;;;;;;;34.63;15.55;;;;;;;;;;5111739;28;20055;-70
2022/03/26 06:07:15;;;;;;;33.05;15.48;;;;;;;;;;5111491;28;20085;-72
2022/03/26 06:09:40;;;;;;;30.75;15.98;;;;;;;;;;5111681;28;20034;-71
2022/03/26 06:12:10;;;;;;;31.80;15.68;;;;;;;;;;5109746;28;20035;-72
2022/03/26 06:14:36;;;;;;;45.70;16.58;;;;;;;;;;5109551;28;20046;-71
2022/03/26 06:17:02;;;;;;;37.78;16.95;;;;;;;;;;5111431;28;20023;-72
2022/03/26 06:19:28;;;;;;;36.83;15.82;;;;;;;;;;5111053;28;20491;-72
2022/03/26 06:21:54;;;;;;;32.65;15.38;;;;;;;;;;5111108;28;20050;-70
2022/03/26 06:24:20;;;;;;;37.28;16.23;;;;;;;;;;5111233;28;20019;-71
2022/03/26 06:26:48;;;;;;;34.22;15.95;;;;;;;;;;5110953;28;20577;-71
2022/03/26 06:29:15;;;;;;;32.72;15.52;;;;;;;;;;5110953;28;20369;-72
2022/03/26 06:31:42;;;;;;;33.13;16.30;;;;;;;;;;5111078;28;20039;-72
2022/03/26 06:34:07;;;;;;;30.92;15.77;;;;;;;;;;5109195;28;20031;-71
2022/03/26 06:36:34;;;;;;;33.95;17.13;;;;;;;;;;5097121;28;20028;-71
2022/03/26 06:39:01;;;;;;;40.45;16.85;;;;;;;;;;5090313;28;20035;-72
2022/03/26 06:41:27;;;;;;;36.95;16.52;;;;;;;;;;5090395;28;20032;-71
2022/03/26 06:43:53;;;;;;;28.27;16.15;;;;;;;;;;5090603;28;20544;-71
2022/03/26 06:46:19;;;;;;;31.70;16.38;;;;;;;;;;5090319;28;20063;-71
2022/03/26 06:48:45;;;;;;;32.00;16.77;;;;;;;;;;5090337;28;20120;-71
2022/03/26 06:51:11;;;;;;;36.88;17.02;;;;;;;;;;5089579;28;20265;-71
2022/03/26 06:53:36;;;;;;;29.80;16.55;;;;;;;;;;5089497;28;20032;-72
2022/03/26 06:56:06;;;;;;;33.72;17.40;;;;;;;;;;5089623;28;20432;-72
2022/03/26 06:58:33;;;;;;;32.65;16.40;;;;;;;;;;5090326;28;20024;-71
2022/03/26 07:00:59;;;;;;;30.20;16.33;;;;;;;;;;5090131;28;20032;-72
2022/03/26 07:03:25;;;;;;;33.10;17.23;;;;;;;;;;5090487;28;20028;-72
2022/03/26 07:05:51;;;;;;;41.67;17.83;;;;;;;;;;5090647;28;20039;-71
2022/03/26 07:08:17;;;;;;;33.65;18.02;;;;;;;;;;5089778;28;20052;-70
2022/03/26 07:10:45;;;;;;;40.83;16.77;;;;;;;;;;5090392;28;20106;-70
2022/03/26 07:13:11;;;;;;;34.97;17.73;;;;;;;;;;5090236;28;20456;-69
2022/03/26 07:15:37;;;;;;;34.45;17.77;;;;;;;;;;5090151;28;20488;-71
2022/03/26 07:18:03;;;;;;;38.50;17.17;;;;;;;;;;5093930;28;20111;-71
2022/03/26 07:20:32;;;;;;;33.65;17.25;;;;;;;;;;5109254;28;20035;-72
2022/03/26 07:22:58;;;;;;;29.15;17.30;;;;;;;;;;5109154;28;20020;-71
2022/03/26 07:25:24;;;;;;;36.28;17.63;;;;;;;;;;5109193;28;20147;-70
2022/03/26 07:27:49;;;;;;;39.15;17.83;;;;;;;;;;5107649;28;20115;-71
2022/03/26 07:30:16;;;;;;;40.40;19.20;;;;;;;;;;5109112;28;20532;-71
2022/03/26 07:32:42;;;;;;;33.45;18.60;;;;;;;;;;5109593;28;20019;-71
2022/03/26 07:35:08;;;;;;;34.50;17.13;;;;;;;;;;5110091;28;20118;-73
2022/03/26 07:37:35;;;;;;;36.33;18.00;;;;;;;;;;5108492;28;20044;-73
2022/03/26 07:40:01;;;;;;;33.40;19.00;;;;;;;;;;5108128;28;20392;-72
2022/03/26 07:42:27;;;;;;;33.65;17.83;;;;;;;;;;5109562;28;20112;-72
2022/03/26 07:44:53;;;;;;;36.35;19.10;;;;;;;;;;5108665;28;20036;-71
2022/03/26 07:47:20;;;;;;;36.67;19.58;;;;;;;;;;5106617;28;20058;-72
2022/03/26 07:49:46;;;;;;;33.33;19.13;;;;;;;;;;5108186;28;20027;-72
2022/03/26 07:52:12;;;;;;;38.45;20.23;;;;;;;;;;5108026;28;20027;-72
2022/03/26 07:54:39;;;;;;;35.05;20.15;;;;;;;;;;5108102;28;20038;-72
2022/03/26 07:57:05;;;;;;;32.58;18.77;;;;;;;;;;5107917;28;20035;-72
2022/03/26 07:59:31;;;;;;;32.00;19.02;;;;;;;;;;5108072;28;20052;-72
2022/03/26 08:01:57;;;;;;;28.55;18.42;;;;;;;;;;5108745;28;20027;-73
2022/03/26 08:04:23;;;;;;;36.88;18.88;;;;;;;;;;5109536;28;20032;-73
2022/03/26 08:06:49;;;;;;;33.75;18.33;;;;;;;;;;5109299;28;20523;-72
2022/03/26 08:09:15;;;;;;;34.13;20.08;;;;;;;;;;5109439;28;20031;-72
2022/03/26 08:11:42;;;;;;;41.55;20.33;;;;;;;;;;5106793;28;20089;-72
2022/03/26 08:14:08;;;;;;;37.25;20.33;;;;;;;;;;5109245;28;20099;-71
2022/03/26 08:16:34;;;;;;;38.22;20.13;;;;;;;;;;5109142;28;20080;-71
2022/03/26 08:19:00;;;;;;;36.60;19.77;;;;;;;;;;5106307;28;20393;-72
2022/03/26 08:21:26;;;;;;;37.13;20.25;;;;;;;;;;5109191;28;20046;-72
2022/03/26 08:23:54;;;;;;;39.90;20.35;;;;;;;;;;5109463;28;20548;-72
2022/03/26 08:26:20;;;;;;;34.67;19.83;;;;;;;;;;5107202;28;20412;-71
2022/03/26 08:28:46;;;;;;;38.22;21.17;;;;;;;;;;5108670;28;20032;-72
2022/03/26 08:31:13;;;;;;;34.03;20.48;;;;;;;;;;5107058;28;20035;-72
2022/03/26 08:33:40;;;;;;;33.95;19.40;;;;;;;;;;5107732;28;20080;-72
2022/03/26 08:36:06;;;;;;;39.53;20.70;;;;;;;;;;5108742;28;20035;-72
2022/03/26 08:38:34;;;;;;;34.30;19.83;;;;;;;;;;5108700;28;20097;-72
2022/03/26 08:41:01;;;;;;;34.92;20.10;;;;;;;;;;5108911;28;20040;-72
2022/03/26 08:43:27;;;;;;;34.53;19.90;;;;;;;;;;5108943;28;20028;-72
2022/03/26 08:45:52;;;;;;;36.90;20.65;;;;;;;;;;5105610;28;20339;-72
2022/03/26 08:48:18;;;;;;;34.20;21.42;;;;;;;;;;5108907;28;20063;-72
2022/03/26 08:50:44;;;;;;;36.88;21.00;;;;;;;;;;5107092;28;20076;-72
2022/03/26 08:53:11;;;;;;;32.00;20.10;;;;;;;;;;5109136;28;20115;-72
2022/03/26 08:55:36;;;;;;;34.97;21.23;;;;;;;;;;5108905;28;20019;-72
2022/03/26 08:58:03;;;;;;;36.28;22.20;;;;;;;;;;5108836;28;20118;-72
2022/03/26 09:00:29;;;;;;;33.50;21.83;;;;;;;;;;5106448;28;20054;-72
2022/03/26 09:02:56;;;;;;;36.85;21.77;;;;;;;;;;5107403;28;20042;-72
2022/03/26 09:05:22;;;;;;;34.58;20.50;;;;;;;;;;5108910;28;20031;-72
2022/03/26 09:07:50;;;;;;;38.72;22.50;;;;;;;;;;5108712;28;20460;-72
2022/03/26 09:10:15;;;;;;;35.17;20.40;;;;;;;;;;5108850;28;20039;-72
2022/03/26 09:12:42;;;;;;;35.53;20.20;;;;;;;;;;5108812;28;20039;-72
2022/03/26 09:15:08;;;;;;;41.25;21.20;;;;;;;;;;5108971;28;20024;-72
2022/03/26 09:17:36;;;;;;;34.80;19.30;;;;;;;;;;5108605;28;20391;-72
2022/03/26 09:20:03;;;;;;;37.65;20.40;;;;;;;;;;5108685;28;20040;-72
2022/03/26 09:22:30;;;;;;;34.78;21.15;;;;;;;;;;5108621;28;20035;-72
2022/03/26 09:24:56;;;;;;;33.60;20.48;;;;;;;;;;5109033;28;20035;-72
2022/03/26 09:27:21;;;;;;;36.42;22.75;;;;;;;;;;5108579;28;20028;-72
2022/03/26 09:29:47;;;;;;;37.47;21.17;;;;;;;;;;5108711;28;20034;-72
2022/03/26 09:32:13;;;;;;;39.50;21.55;;;;;;;;;;5110345;28;20135;-72
2022/03/26 09:34:40;;;;;;;37.78;20.70;;;;;;;;;;5108379;28;20769;-73
2022/03/26 09:37:06;;;;;;;33.67;20.27;;;;;;;;;;5100224;27;20047;-72
2022/03/26 09:39:32;;;;;;;38.25;21.63;;;;;;;;;;5112958;28;20039;-72
2022/03/26 09:41:58;;;;;;;34.40;21.63;;;;;;;;;;5115612;28;20035;-70
2022/03/26 09:44:25;;;;;;;37.67;20.30;;;;;;;;;;5113421;28;20032;-68
2022/03/26 09:46:51;;;;;;;34.67;21.58;;;;;;;;;;5111832;28;20041;-70
2022/03/26 09:49:17;;;;;;;43.58;22.50;;;;;;;;;;5112350;28;20410;-70
2022/03/26 09:51:43;;;;;;;38.97;21.60;;;;;;;;;;5112364;28;20069;-68
2022/03/26 09:54:12;;;;;;;33.72;20.50;;;;;;;;;;5110811;28;20043;-68
2022/03/26 09:56:39;;;;;;;40.83;21.48;;;;;;;;;;5112044;28;20024;-71
2022/03/26 09:59:05;;;;;;;33.85;21.30;;;;;;;;;;5113519;28;20058;-69
2022/03/26 10:01:31;;;;;;;39.33;23.38;;;;;;;;;;5112585;28;20117;-66
2022/03/26 10:04:13;;;;;;;40.80;21.38;;;;;;;;;;5112543;28;20062;-71
2022/03/26 10:06:48;;;;;;;36.88;21.65;;;;;;;;;;5112082;28;20468;-65
2022/03/26 10:09:29;;;;;;;33.70;21.35;;;;;;;;;;5112185;28;20396;-64
2022/03/26 10:12:10;;;;;;;34.53;23.45;;;;;;;;;;5111786;28;20031;-67
2022/03/26 10:14:40;;;;;;;31.25;21.60;;;;;;;;;;5111869;28;20027;-66
2022/03/26 10:17:33;;;;;;;35.47;21.65;;;;;;;;;;5111805;28;20027;-68
2022/03/26 10:20:10;;;;;;;35.53;20.88;;;;;;;;;;5110021;27;20043;-67
2022/03/26 10:22:36;;;;;;;34.13;20.88;;;;;;;;;;5111330;28;20050;-66
2022/03/26 10:25:13;;;;;;;31.60;19.52;;;;;;;;;;5111740;28;20020;-70
2022/03/26 10:27:42;;;;;;;32.63;20.58;;;;;;;;;;5110992;28;20027;-71
2022/03/26 10:30:10;;;;;;;32.42;21.73;;;;;;;;;;5105749;27;20039;-70
2022/03/26 10:32:45;;;;;;;33.10;21.55;;;;;;;;;;5101602;28;20019;-70
2022/03/26 10:35:25;;;;;;;33.78;22.15;;;;;;;;;;5129517;27;20492;-69
2022/03/26 10:37:56;;;;;;;;;;;;;;;;;;5118274;27;20035;-71
2022/03/26 10:40:26;;;;;;;31.98;21.42;;;;;;;;;;5109471;27;20390;-70
2022/03/26 10:42:57;;;;;;;34.70;20.95;;;;;;;;;;5107149;28;20550;-69
2022/03/26 10:45:24;;;;;;;31.50;20.75;;;;;;;;;;5105815;27;20035;-70
2022/03/26 10:47:53;;;;;;;30.45;19.00;;;;;;;;;;5106001;28;20027;-70
2022/03/26 10:50:19;;;;;;;35.35;19.83;;;;;;;;;;5109056;28;20031;-70
2022/03/26 10:52:45;;;;;;;30.92;19.63;;;;;;;;;;5097038;28;20020;-68
2022/03/26 10:55:16;;;;;;;32.05;19.45;;;;;;;;;;5105230;28;20043;-68
2022/03/26 10:57:47;;;;;;;31.60;19.73;;;;;;;;;;5102467;27;20050;-70
2022/03/26 11:00:19;;;;;;;32.60;18.23;;;;;;;;;;5104969;28;20023;-69
2022/03/26 11:02:45;;;;;;;28.38;17.02;;;;;;;;;;5107632;28;20031;-70
2022/03/26 11:05:12;;;;;;;33.80;19.83;;;;;;;;;;5110183;28;20038;-69
2022/03/26 11:07:40;;;;;;;27.30;18.02;;;;;;;;;;5110322;28;20034;-69
2022/03/26 11:10:09;;;;;;;29.45;17.80;;;;;;;;;;5101534;27;20042;-70
2022/03/26 11:12:42;;;;;;;31.13;18.45;;;;;;;;;;5108947;28;20024;-70
2022/03/26 11:15:11;;;;;;;31.70;17.45;;;;;;;;;;5108874;28;20058;-70
2022/03/26 11:17:52;;;;;;;30.60;17.37;;;;;;;;;;5108787;28;20035;-70
2022/03/26 11:20:32;;;;;;;26.95;17.92;;;;;;;;;;5108764;28;20453;-70
2022/03/26 11:23:16;;;;;;;30.42;18.77;;;;;;;;;;5108888;28;20055;-69
2022/03/26 11:26:11;;;;;;;28.00;17.05;;;;;;;;;;5109740;28;20495;-70
2022/03/26 11:28:45;;;;;;;29.33;16.25;;;;;;;;;;5109943;28;20024;-71
2022/03/26 11:31:38;;;;;;;26.08;16.13;;;;;;;;;;5108447;28;20125;-71
2022/03/26 11:34:08;;;;;;;26.55;15.73;;;;;;;;;;5110222;28;20034;-71
2022/03/26 11:36:34;;;;;;;27.00;15.50;;;;;;;;;;5110102;28;20032;-71
2022/03/26 11:39:10;;;;;;;27.00;15.98;;;;;;;;;;5109831;28;20031;-70
2022/03/26 11:41:36;;;;;;;28.42;16.55;;;;;;;;;;5110187;28;20031;-71
2022/03/26 11:44:03;;;;;;;31.67;17.00;;;;;;;;;;5110077;28;20472;-71
2022/03/26 11:52:39;;;;;;;25.73;15.73;;;;;;;;;;5109920;28;20019;-71
2022/03/26 11:55:15;;;;;;;24.05;15.25;;;;;;;;;;5109890;28;20138;-71
2022/03/26 11:57:41;;;;;;;25.95;15.05;;;;;;;;;;5109718;28;20035;-71
2022/03/26 12:00:15;;;;;;;26.17;15.75;;;;;;;;;;5109873;28;20023;-71
2022/03/26 12:02:51;;;;;;;27.27;15.20;;;;;;;;;;5109886;28;20027;-70
2022/03/26 12:08:18;;;;;;;26.45;17.25;;;;;;;;;;5109604;28;20027;-69
2022/03/26 12:10:44;;;;;;;25.25;16.17;;;;;;;;;;5108436;28;20035;-71
2022/03/26 12:13:20;;;;;;;29.00;17.27;;;;;;;;;;5110006;28;20034;-71
2022/03/26 12:15:59;;;;;;;27.08;17.42;;;;;;;;;;5109972;28;20118;-70
2022/03/26 12:18:32;;;;;;;28.27;17.08;;;;;;;;;;5109666;28;20024;-70
2022/03/26 12:21:21;;;;;;;27.83;16.65;;;;;;;;;;5109420;28;20039;-72
2022/03/26 12:23:48;;;;;;;25.45;15.80;;;;;;;;;;5109448;28;20031;-70
2022/03/26 12:26:14;;;;;;;27.23;15.93;;;;;;;;;;5109498;28;20054;-70
2022/03/26 12:28:41;;;;;;;27.15;16.17;;;;;;;;;;5109342;28;20417;-70
2022/03/26 12:31:10;;;;;;;31.42;15.77;;;;;;;;;;5109258;28;20066;-69
2022/03/26 12:33:39;;;;;;;33.60;16.23;;;;;;;;;;5109407;28;20030;-70
2022/03/26 12:36:06;;;;;;;28.05;16.30;;;;;;;;;;5109470;28;20039;-70
2022/03/26 12:38:31;;;;;;;26.58;15.45;;;;;;;;;;5109366;28;20032;-70
2022/03/26 12:41:01;;;;;;;31.83;17.10;;;;;;;;;;5109375;28;20119;-70
2022/03/26 12:43:27;;;;;;;31.98;16.52;;;;;;;;;;5106256;28;20035;-70
2022/03/26 12:45:54;;;;;;;31.20;16.35;;;;;;;;;;5091404;28;20578;-71
2022/03/26 12:48:23;;;;;;;27.15;16.52;;;;;;;;;;5089173;28;20475;-71
2022/03/26 12:50:49;;;;;;;33.65;16.80;;;;;;;;;;5087961;28;20024;-71
2022/03/26 12:53:17;;;;;;;30.17;16.95;;;;;;;;;;5088792;28;20388;-70
2022/03/26 12:55:55;;;;;;;27.70;16.35;;;;;;;;;;5088787;28;20028;-71
2022/03/26 13:01:13;;;;;;;31.17;17.38;;;;;;;;;;5089101;28;20039;-71
2022/03/26 13:03:40;;;;;;;29.33;17.23;;;;;;;;;;5088645;28;20492;-70
2022/03/26 13:06:07;;;;;;;33.35;17.23;;;;;;;;;;5090351;28;20039;-70
2022/03/26 13:08:34;;;;;;;32.35;18.65;;;;;;;;;;5092118;28;20365;-70
2022/03/26 13:11:10;;;;;;;31.40;18.40;;;;;;;;;;5091067;28;20061;-70
2022/03/26 13:13:49;;;;;;;31.40;18.60;;;;;;;;;;5092321;28;20028;-70
2022/03/26 13:16:24;;;;;;;30.15;16.60;;;;;;;;;;5092260;28;20043;-70
2022/03/26 13:18:57;;;;;;;26.10;15.13;;;;;;;;;;5090965;28;20518;-70
2022/03/26 13:21:24;;;;;;;25.50;15.93;;;;;;;;;;5092284;28;20043;-70
2022/03/26 13:23:51;;;;;;;30.25;16.52;;;;;;;;;;5092018;28;20028;-70
2022/03/26 13:26:16;;;;;;;25.15;17.33;;;;;;;;;;5092049;28;20028;-71
2022/03/26 13:28:42;;;;;;;32.22;18.08;;;;;;;;;;5092027;28;20480;-71
2022/03/26 13:31:21;;;;;;;30.48;17.85;;;;;;;;;;5092002;28;20102;-70
2022/03/26 13:33:46;;;;;;;29.15;17.50;;;;;;;;;;5091995;28;20028;-70
2022/03/26 13:36:12;;;;;;;30.25;17.17;;;;;;;;;;5091931;28;20028;-71
2022/03/26 13:38:41;;;;;;;30.13;16.58;;;;;;;;;;5091734;28;20617;-71
2022/03/26 13:41:20;;;;;;;28.38;16.15;;;;;;;;;;5091709;28;20033;-70
2022/03/26 13:43:48;;;;;;;27.90;16.65;;;;;;;;;;5092018;28;20382;-70
2022/03/26 13:46:15;;;;;;;29.60;15.93;;;;;;;;;;5091610;28;20032;-70
2022/03/26 13:48:49;;;;;;;30.17;16.73;;;;;;;;;;5091564;28;20024;-70
2022/03/26 13:51:15;;;;;;;28.35;15.20;;;;;;;;;;5090402;28;20039;-70
2022/03/26 13:53:43;;;;;;;30.20;15.52;;;;;;;;;;5091716;28;20043;-71
2022/03/26 13:56:10;;;;;;;31.90;15.20;;;;;;;;;;5090347;28;20118;-72
2022/03/26 13:58:36;;;;;;;24.30;13.98;;;;;;;;;;5091472;28;20031;-70
2022/03/26 14:01:09;;;;;;;23.92;14.93;;;;;;;;;;5091256;28;20032;-70
2022/03/26 14:03:44;;;;;;;25.92;15.07;;;;;;;;;;5090106;28;20040;-70
2022/03/26 14:06:10;;;;;;;30.67;14.45;;;;;;;;;;5091344;28;20020;-71
2022/03/26 14:08:36;;;;;;;28.08;14.55;;;;;;;;;;5091302;28;20111;-70
2022/03/26 14:11:02;;;;;;;29.15;14.65;;;;;;;;;;5091140;28;20043;-71
2022/03/26 14:13:28;;;;;;;29.30;14.05;;;;;;;;;;5091214;28;20039;-71
2022/03/26 14:15:54;;;;;;;23.33;14.00;;;;;;;;;;5091613;28;20028;-71
2022/03/26 14:18:21;;;;;;;27.48;14.40;;;;;;;;;;5101727;28;20027;-69
2022/03/26 14:20:48;;;;;;;26.63;14.55;;;;;;;;;;5111130;28;20042;-70
2022/03/26 14:23:14;;;;;;;25.17;14.77;;;;;;;;;;5109741;28;20040;-71
2022/03/26 14:25:41;;;;;;;25.70;14.02;;;;;;;;;;5111324;28;20028;-69
2022/03/26 14:28:10;;;;;;;27.38;13.45;;;;;;;;;;5111442;28;20031;-71
2022/03/26 14:30:37;;;;;;;22.48;13.23;;;;;;;;;;5111380;28;20024;-70
2022/03/26 14:33:03;;;;;;;22.58;13.07;;;;;;;;;;5111389;28;20480;-71